• Join FlightAware (Why Join?)
  • Login
  • US Flag 
01:08AM EDT


 

Airport Tracker/Info


-or-


 

Live Flight TrackerFlight Track Log ✈ AAY855 ✈ 07-Feb-2014 ✈ KSBN - KPIE

Flight Track Log - Related Links

Times and Time Zones

All times are in EST time to prevent confusion due to time zone crossing. See the AAY855 flight status page for this flight to view local times or setup timezone preferences in your user account.

Time Position Orientation Groundspeed Altitude Reporting Facility
EST Latitude Longitude Course Direction KTS MPH feet Rate Location/Type
09:33PM 41.5134 -86.2215 174° South 301 346 10,200  Level FlightAware ADS-B (KMDW)
09:34PM 41.4666 -86.2158 175° South 337 388 10,900 2,160 Climbing FlightAware ADS-B (KMDW)
09:34PM 41.3903 -86.2013 172° South 349 402 13,100 2,700 Climbing FlightAware ADS-B (KMDW)
09:35PM 41.3381 -86.1898 171° South 351 404 14,600 2,340 Climbing FlightAware ADS-B (KMDW)
09:36PM 41.2677 -86.1764 172° South 363 418 16,100 1,980 Climbing FlightAware ADS-B (KMDW)
09:36PM 41.1919 -86.1633 173° South 379 436 17,500 2,220 Climbing FlightAware ADS-B (KMDW)
09:37PM 41.1258 -86.1500 171° South 376 433 19,200 2,040 Climbing FlightAware ADS-B (KMDW)
09:38PM 41.0850 -86.1422 172° South 390 449 20,300 1,740 Climbing FlightAware ADS-B (KMDW)
09:38PM 40.9851 -86.1238 172° South 398 458 21,600 2,040 Climbing FlightAware ADS-B (KMDW)
09:39PM 40.9134 -86.1101 172° South 396 456 23,000 1,860 Climbing FlightAware ADS-B (KMDW)
09:40PM 40.8484 -86.0975 172° South 405 466 23,900 1,740 Climbing FlightAware ADS-B (KMDW)
09:41PM 40.7242 -86.0720 171° South 405 466 26,000 1,560 Climbing FlightAware ADS-B (KMDW)
09:42PM 40.5631 -86.0411 172° South 414 476 28,100 1,320 Climbing FlightAware ADS-B (KMDW)
09:43PM 40.4870 -86.0266 172° South 417 480 28,800 1,080 Climbing FlightAware ADS-B (KMDW)
09:44PM 40.3877 -86.0080 172° South 428 493 29,900 960 Climbing FlightAware ADS-B (KMDW)
09:45PM 40.2583 -85.9842 172° South 431 496 30,800 1,320 Climbing Chicago Center
09:46PM 40.1408 -85.9622 172° South 428 493 32,600 960 Climbing Chicago Center
09:51PM 39.5224 -85.8465 172° South 412 474 37,000 660 Climbing FlightAware ADS-B (KBRY)
09:52PM 39.4057 -85.8250 172° South 411 473 37,000  Level FlightAware ADS-B (KBRY)
09:53PM 39.3041 -85.8066 172° South 415 478 37,000  Level FlightAware ADS-B (KBRY)
09:54PM 39.1843 -85.7842 172° South 404 465 37,000  Level FlightAware ADS-B (KBRY)
09:55PM 39.0692 -85.7632 172° South 396 456 37,000 -60 Level FlightAware ADS-B (KBRY)
09:56PM 38.9649 -85.7443 172° South 391 450 36,900 -60 Descending FlightAware ADS-B (KBRY)
09:57PM 38.8581 -85.7251 172° South 393 452 36,900  Level FlightAware ADS-B (KBRY)
09:58PM 38.7483 -85.7052 172° South 392 451 37,000  Climbing FlightAware ADS-B (KBRY)
09:59PM 38.6370 -85.6852 172° South 390 449 37,000  Level FlightAware ADS-B (KBRY)
10:00PM 38.5346 -85.6667 172° South 389 448 37,000  Level FlightAware ADS-B (KBRY)
10:01PM 38.4373 -85.6494 172° South 389 448 37,000  Level FlightAware ADS-B
10:02PM 38.3489 -85.6336 172° South 389 448 37,000  Level FlightAware ADS-B (KJVY)
10:03PM 38.2771 -85.6208 172° South 388 447 37,000  Level FlightAware ADS-B
10:03PM 38.2220 -85.6110 172° South 388 447 37,000  Level FlightAware ADS-B
10:04PM 38.1627 -85.6006 172° South 388 447 37,000  Level FlightAware ADS-B
10:05PM 38.0633 -85.5828 172° South 388 447 37,000  Level FlightAware ADS-B
10:05PM 37.9959 -85.5709 172° South 388 447 37,000  Level FlightAware ADS-B (KBRY)
10:06PM 37.9315 -85.5594 172° South 387 445 37,000  Level FlightAware ADS-B
10:07PM 37.8509 -85.5453 172° South 387 445 37,000  Level FlightAware ADS-B
10:07PM 37.7982 -85.5359 172° South 387 445 37,000  Level FlightAware ADS-B
10:08PM 37.7425 -85.5261 172° South 389 448 37,000  Level FlightAware ADS-B
10:08PM 37.6888 -85.5168 172° South 389 448 37,000  Level FlightAware ADS-B
10:09PM 37.6091 -85.5030 172° South 391 450 37,000  Level FlightAware ADS-B
10:09PM 37.5546 -85.4935 172° South 391 450 37,000  Level FlightAware ADS-B
10:10PM 37.5020 -85.4843 172° South 391 450 37,000  Level FlightAware ADS-B
10:11PM 37.4244 -85.4708 172° South 390 449 37,000  Level FlightAware ADS-B
10:11PM 37.3690 -85.4611 172° South 387 445 37,000  Level FlightAware ADS-B
10:12PM 37.3158 -85.4520 172° South 385 443 37,000  Level FlightAware ADS-B
10:12PM 37.2638 -85.4431 172° South 383 441 37,000 -120 Level FlightAware ADS-B
10:13PM 37.2157 -85.4348 172° South 385 443 36,900  Descending FlightAware ADS-B
10:13PM 37.1524 -85.4236 172° South 385 443 37,000 60 Climbing FlightAware ADS-B (KBRY)
10:14PM 37.0786 -85.4107 172° South 386 444 37,000  Level FlightAware ADS-B
10:15PM 36.9968 -85.3967 172° South 386 444 37,000  Level FlightAware ADS-B
10:15PM 36.9337 -85.3860 172° South 385 443 37,000  Level FlightAware ADS-B
10:16PM 36.8362 -85.3692 172° South 382 440 37,000  Level FlightAware ADS-B
10:17PM 36.7856 -85.3606 172° South 380 437 37,000  Level FlightAware ADS-B
10:17PM 36.7311 -85.3514 172° South 380 437 37,000  Level FlightAware ADS-B
10:18PM 36.6156 -85.3317 172° South 383 441 37,000  Level FlightAware ADS-B (KBRY)
10:19PM 36.5467 -85.3200 172° South 384 442 37,000  Level FlightAware ADS-B
10:19PM 36.4944 -85.3111 172° South 385 443 37,000  Level FlightAware ADS-B
10:20PM 36.4557 -85.3045 172° South 386 444 37,000  Level FlightAware ADS-B
10:20PM 36.3906 -85.2934 172° South 386 444 37,000  Level FlightAware ADS-B
10:21PM 36.3268 -85.2826 172° South 386 444 37,000  Level FlightAware ADS-B
10:22PM 36.2048 -85.2621 172° South 385 443 37,000  Level FlightAware ADS-B
10:23PM 36.1481 -85.2527 172° South 384 442 37,000  Level FlightAware ADS-B
10:23PM 36.0905 -85.2430 172° South 385 443 37,000  Level FlightAware ADS-B (KBRY)
10:24PM 36.0201 -85.2311 172° South 385 443 37,000 -60 Level FlightAware ADS-B
10:25PM 35.9008 -85.2108 172° South 385 443 36,900  Descending Indianapolis Center
10:26PM 35.7950 -85.1936 172° South 387 445 37,000  Climbing Indianapolis Center
10:27PM 35.6881 -85.1756 172° South 390 449 37,000  Level Indianapolis Center
10:28PM 35.5806 -85.1572 172° South 392 451 37,000  Level Indianapolis Center
10:34PM 34.9021 -85.0466 172° South 392 451 37,000  Level FlightAware ADS-B (KDZJ)
10:34PM 34.8366 -85.0357 172° South 393 452 37,000  Level FlightAware ADS-B (KDZJ)
10:35PM 34.7550 -85.0228 173° South 402 463 37,000  Level FlightAware ADS-B (KDZJ)
10:35PM 34.6986 -85.0137 172° South 404 465 37,000  Level FlightAware ADS-B (KDZJ)
10:36PM 34.6130 -84.9998 172° South 405 466 37,000  Level FlightAware ADS-B (KDZJ)
10:37PM 34.5522 -84.9898 172° South 406 467 37,000  Level FlightAware ADS-B (KDZJ)
10:37PM 34.4835 -84.9788 172° South 408 470 37,000  Level FlightAware ADS-B (KDZJ)
10:38PM 34.4258 -84.9696 172° South 408 470 37,000  Level FlightAware ADS-B (KDZJ)
10:38PM 34.3693 -84.9604 172° South 409 471 37,000  Level FlightAware ADS-B (KDZJ)
10:39PM 34.3135 -84.9514 172° South 409 471 37,000  Level FlightAware ADS-B (KDZJ)
10:40PM 34.1568 -84.9265 172° South 404 465 37,000  Level FlightAware ADS-B (KDZJ)
10:41PM 34.0810 -84.9145 173° South 403 464 37,000  Level FlightAware ADS-B (KDZJ)
10:42PM 34.0047 -84.9021 172° South 404 465 37,000  Level FlightAware ADS-B (KDZJ)
10:42PM 33.9294 -84.8902 172° South 403 464 37,000  Level FlightAware ADS-B (KDZJ)
10:43PM 33.8537 -84.8780 172° South 409 471 37,000  Level FlightAware ADS-B (KDZJ)
10:44PM 33.7839 -84.8665 172° South 411 473 37,000  Level FlightAware ADS-B (KDZJ)
10:44PM 33.7831 -84.8711 172° South 410 472 37,000  Level Atlanta Center
10:45PM 33.6706 -84.8425 168° South 410 472 37,000  Level Atlanta Center
10:46PM 33.5581 -84.8117 167° South 410 472 37,000  Level Atlanta Center
10:47PM 33.4497 -84.7833 168° South 410 472 37,000 -60 Level Atlanta Center
10:48PM 33.3392 -84.7550 168° South 410 472 36,900  Descending Atlanta Center
10:49PM 33.2308 -84.7267 168° South 410 472 37,000  Climbing Atlanta Center
10:50PM 33.1203 -84.7011 169° South 410 472 37,000  Level Atlanta Center
10:51PM 32.9994 -84.6728 169° South 410 472 37,000  Level Atlanta Center
10:52PM 32.8911 -84.6472 169° South 410 472 37,000  Level Atlanta Center
10:53PM 32.8036 -84.6219 166° South 410 472 37,000  Level Atlanta Center
10:54PM 32.6825 -84.5892 167° South 410 472 37,000  Level Atlanta Center
10:55PM 32.5719 -84.5614 168° South 410 472 37,000  Level Atlanta Center
10:56PM 32.4636 -84.5336 168° South 410 472 37,000  Level Atlanta Center
10:57PM 32.3553 -84.5083 169° South 410 472 37,000  Level Atlanta Center
10:58PM 32.2447 -84.4808 168° South 410 472 37,000  Level Atlanta Center
11:00PM 32.0486 -84.4319 168° South 393 452 37,000  Level Jacksonville Center
11:01PM 31.9383 -84.4031 167° South 393 452 37,000  Level Jacksonville Center
11:02PM 31.8300 -84.3769 168° South 398 458 37,000  Level Jacksonville Center
11:03PM 31.7217 -84.3508 168° South 398 458 37,000  Level Jacksonville Center
11:04PM 31.5989 -84.3219 169° South 405 466 37,000  Level Jacksonville Center
11:05PM 31.4886 -84.2933 168° South 410 472 37,000  Level Jacksonville Center
11:06PM 31.3803 -84.2675 168° South 410 472 37,000  Level Jacksonville Center
11:07PM 31.2678 -84.2392 168° South 410 472 37,000  Level Jacksonville Center
11:08PM 31.1553 -84.2133 169° South 410 472 37,000  Level Jacksonville Center
11:09PM 31.0431 -84.1850 168° South 410 472 37,000  Level Jacksonville Center
11:10PM 30.9325 -84.1592 169° South 410 472 37,000  Level Jacksonville Center
11:11PM 30.8200 -84.1336 169° South 410 472 37,000  Level Jacksonville Center
11:12PM 30.7056 -84.1056 168° South 410 472 37,000  Level Jacksonville Center
11:13PM 30.5950 -84.0775 168° South 410 472 37,000  Level Jacksonville Center
11:14PM 30.4950 -84.0569 170° South 410 472 37,000 -60 Level Jacksonville Center
11:15PM 30.3847 -84.0267 167° South 410 472 36,900 -60 Descending Jacksonville Center
11:16PM 30.2722 -84.0014 169° South 410 472 36,900  Level Jacksonville Center
11:17PM 30.1556 -83.9736 168° South 417 480 36,900  Level Jacksonville Center
11:18PM 30.0431 -83.9458 168° South 417 480 36,900  Level Jacksonville Center
11:19PM 29.9303 -83.9208 169° South 417 480 36,900  Level Jacksonville Center
11:20PM 29.8158 -83.8931 168° South 417 480 36,900 -240 Level Jacksonville Center
11:21PM 29.7056 -83.8250 152° Southeast 423 487 36,500 -900 Descending Jacksonville Center
11:22PM 29.5956 -83.7525 150° Southeast 441 507 35,100 -1,800 Descending Jacksonville Center
11:23PM 29.4917 -83.6847 150° Southeast 441 507 32,900 -2,460 Descending Jacksonville Center
11:24PM 29.3753 -83.6100 151° Southeast 441 507 30,200 -2,460 Descending Jacksonville Center
11:25PM 29.2733 -83.5425 150° Southeast 431 496 28,000 -2,100 Descending Jacksonville Center
11:26PM 29.1733 -83.4800 151° Southeast 424 488 26,100 -1,800 Descending Jacksonville Center
11:27PM 29.0756 -83.4178 151° Southeast 412 474 24,400 -1,740 Descending Jacksonville Center
11:28PM 28.9797 -83.3553 150° Southeast 412 474 22,700 -1,680 Descending Jacksonville Center
11:29PM 28.8858 -83.2981 152° Southeast 398 458 21,100 -1,620 Descending Jacksonville Center
11:30PM 28.7922 -83.2386 151° Southeast 392 451 19,500 -1,560 Descending Jacksonville Center
11:33PM 28.5833 -83.1000 150° Southeast 352 405 15,800 -1,560 Descending Tampa TRACON
11:34PM 28.5000 -83.0500 152° Southeast 348 400 14,300 -1,440 Descending Tampa TRACON
11:35PM 28.4167 -83.0000 152° Southeast 336 387 13,000 -1,320 Descending Tampa TRACON
11:36PM 28.3333 -82.9500 152° Southeast 311 358 11,700 -1,260 Descending Tampa TRACON
11:37PM 28.2667 -82.9000 147° Southeast 300 345 10,500 -900 Descending Tampa TRACON
11:38PM 28.1833 -82.8667 161° South 280 322 10,000 -1,020 Descending Tampa TRACON
11:39PM 28.1167 -82.8500 168° South 281 323 8,500 -1,560 Descending Tampa TRACON
11:40PM 28.0333 -82.8333 170° South 273 314 6,900 -1,680 Descending Tampa TRACON
11:41PM 27.9667 -82.8333 180° South 268 308 5,200 -1,440 Descending Tampa TRACON
11:42PM 27.8833 -82.8167 170° South 261 300 4,000 -1,080 Descending Tampa TRACON
11:43PM 27.8167 -82.8167 180° South 256 295 3,100 -600 Descending Tampa TRACON
11:44PM 27.7667 -82.8000 164° South 210 242 2,800 -480 Descending Tampa TRACON
11:45PM 27.7333 -82.7500 127° Southeast 205 236 2,200 -420 Descending Tampa TRACON
11:46PM 27.7167 -82.6833 106° East 191 220 2,000 -120 Descending Tampa TRACON
11:47PM 27.7500 -82.6667 24° Northeast 195 224 2,000 -120 Level Tampa TRACON
11:48PM 27.8000 -82.6667 360° North 185 213 1,800 -540 Descending Tampa TRACON
11:49PM 27.8500 -82.6833 344° North 154 177 1,000 -780 Descending Tampa TRACON
11:50PM 27.8833 -82.6833 360° North 126 145 300 -720 Descending Tampa TRACON